sensor_id;sensor_type;location;lat;lon;timestamp;P1;durP1;ratioP1;P2;durP2;ratioP2
505;SDS011;551;48.524;9.056;2024-02-26T00:01:27;5.90;;;4.13;;
505;SDS011;551;48.524;9.056;2024-02-26T00:03:52;5.00;;;4.10;;
505;SDS011;551;48.524;9.056;2024-02-26T00:06:20;5.43;;;4.40;;
505;SDS011;551;48.524;9.056;2024-02-26T00:08:45;4.53;;;3.70;;
505;SDS011;551;48.524;9.056;2024-02-26T00:11:11;7.43;;;3.80;;
505;SDS011;551;48.524;9.056;2024-02-26T00:13:37;7.20;;;3.43;;
505;SDS011;551;48.524;9.056;2024-02-26T00:16:03;6.63;;;4.40;;
505;SDS011;551;48.524;9.056;2024-02-26T00:18:29;5.20;;;4.00;;
505;SDS011;551;48.524;9.056;2024-02-26T00:20:54;8.00;;;4.27;;
505;SDS011;551;48.524;9.056;2024-02-26T00:23:20;5.23;;;3.83;;
505;SDS011;551;48.524;9.056;2024-02-26T00:25:46;9.00;;;4.90;;
505;SDS011;551;48.524;9.056;2024-02-26T00:28:11;7.00;;;4.47;;
505;SDS011;551;48.524;9.056;2024-02-26T00:30:38;7.37;;;3.80;;
505;SDS011;551;48.524;9.056;2024-02-26T00:33:04;5.57;;;4.17;;
505;SDS011;551;48.524;9.056;2024-02-26T00:35:29;6.43;;;3.63;;
505;SDS011;551;48.524;9.056;2024-02-26T00:37:55;9.37;;;4.87;;
505;SDS011;551;48.524;9.056;2024-02-26T00:40:20;6.60;;;4.30;;
505;SDS011;551;48.524;9.056;2024-02-26T00:42:46;6.60;;;4.43;;
505;SDS011;551;48.524;9.056;2024-02-26T00:45:12;6.40;;;4.47;;
505;SDS011;551;48.524;9.056;2024-02-26T00:47:38;7.20;;;4.10;;
505;SDS011;551;48.524;9.056;2024-02-26T00:50:06;4.17;;;3.60;;
505;SDS011;551;48.524;9.056;2024-02-26T00:52:33;3.70;;;3.33;;
505;SDS011;551;48.524;9.056;2024-02-26T00:54:58;4.93;;;3.67;;
505;SDS011;551;48.524;9.056;2024-02-26T00:57:24;2.63;;;2.13;;
505;SDS011;551;48.524;9.056;2024-02-26T00:59:50;4.93;;;2.73;;
505;SDS011;551;48.524;9.056;2024-02-26T01:02:15;2.63;;;2.40;;
505;SDS011;551;48.524;9.056;2024-02-26T01:04:41;2.03;;;1.80;;
505;SDS011;551;48.524;9.056;2024-02-26T01:07:06;5.13;;;1.90;;
505;SDS011;551;48.524;9.056;2024-02-26T01:09:32;3.00;;;2.60;;
505;SDS011;551;48.524;9.056;2024-02-26T01:11:58;4.03;;;3.13;;
505;SDS011;551;48.524;9.056;2024-02-26T01:14:23;4.30;;;3.20;;
505;SDS011;551;48.524;9.056;2024-02-26T01:16:49;4.80;;;3.80;;
505;SDS011;551;48.524;9.056;2024-02-26T01:19:14;5.33;;;4.23;;
505;SDS011;551;48.524;9.056;2024-02-26T01:21:40;7.43;;;4.03;;
505;SDS011;551;48.524;9.056;2024-02-26T01:24:08;4.90;;;4.23;;
505;SDS011;551;48.524;9.056;2024-02-26T01:26:34;5.90;;;4.50;;
505;SDS011;551;48.524;9.056;2024-02-26T01:28:59;5.67;;;3.97;;
505;SDS011;551;48.524;9.056;2024-02-26T01:31:25;4.40;;;3.97;;
505;SDS011;551;48.524;9.056;2024-02-26T01:33:51;5.83;;;4.63;;
505;SDS011;551;48.524;9.056;2024-02-26T01:36:16;7.57;;;4.50;;
505;SDS011;551;48.524;9.056;2024-02-26T01:38:42;6.80;;;5.00;;
505;SDS011;551;48.524;9.056;2024-02-26T01:41:07;4.83;;;4.33;;
505;SDS011;551;48.524;9.056;2024-02-26T01:43:33;6.00;;;4.80;;
505;SDS011;551;48.524;9.056;2024-02-26T01:45:58;4.63;;;4.20;;
505;SDS011;551;48.524;9.056;2024-02-26T01:48:24;9.50;;;4.57;;
505;SDS011;551;48.524;9.056;2024-02-26T01:50:50;5.17;;;4.47;;
505;SDS011;551;48.524;9.056;2024-02-26T01:53:16;5.77;;;3.80;;
505;SDS011;551;48.524;9.056;2024-02-26T01:55:43;5.73;;;4.23;;
505;SDS011;551;48.524;9.056;2024-02-26T01:58:09;5.60;;;3.83;;
505;SDS011;551;48.524;9.056;2024-02-26T02:00:35;5.63;;;3.80;;
505;SDS011;551;48.524;9.056;2024-02-26T02:03:02;3.20;;;2.97;;
505;SDS011;551;48.524;9.056;2024-02-26T02:05:28;3.93;;;2.80;;
505;SDS011;551;48.524;9.056;2024-02-26T02:07:55;5.43;;;3.80;;
505;SDS011;551;48.524;9.056;2024-02-26T02:10:20;3.57;;;3.10;;
505;SDS011;551;48.524;9.056;2024-02-26T02:12:50;4.43;;;3.33;;
505;SDS011;551;48.524;9.056;2024-02-26T02:15:16;3.27;;;2.97;;
505;SDS011;551;48.524;9.056;2024-02-26T02:17:42;4.60;;;3.50;;
505;SDS011;551;48.524;9.056;2024-02-26T02:20:08;4.00;;;3.07;;
505;SDS011;551;48.524;9.056;2024-02-26T02:22:34;3.50;;;3.20;;
505;SDS011;551;48.524;9.056;2024-02-26T02:25:00;11.37;;;3.37;;
505;SDS011;551;48.524;9.056;2024-02-26T02:27:26;3.90;;;3.50;;
505;SDS011;551;48.524;9.056;2024-02-26T02:29:53;4.77;;;3.30;;
505;SDS011;551;48.524;9.056;2024-02-26T02:32:19;5.70;;;3.50;;
505;SDS011;551;48.524;9.056;2024-02-26T02:34:45;4.30;;;3.10;;
505;SDS011;551;48.524;9.056;2024-02-26T02:37:11;3.43;;;2.93;;
505;SDS011;551;48.524;9.056;2024-02-26T02:39:36;3.80;;;3.50;;
505;SDS011;551;48.524;9.056;2024-02-26T02:42:02;3.40;;;3.03;;
505;SDS011;551;48.524;9.056;2024-02-26T02:44:28;3.50;;;2.90;;
505;SDS011;551;48.524;9.056;2024-02-26T02:46:53;4.40;;;3.10;;
505;SDS011;551;48.524;9.056;2024-02-26T02:49:19;5.20;;;2.73;;
505;SDS011;551;48.524;9.056;2024-02-26T02:51:44;5.90;;;3.27;;
505;SDS011;551;48.524;9.056;2024-02-26T02:54:09;3.83;;;3.40;;
505;SDS011;551;48.524;9.056;2024-02-26T02:56:35;4.00;;;2.73;;
505;SDS011;551;48.524;9.056;2024-02-26T02:59:01;4.37;;;2.97;;
505;SDS011;551;48.524;9.056;2024-02-26T03:01:27;3.93;;;3.40;;
505;SDS011;551;48.524;9.056;2024-02-26T03:03:52;3.23;;;2.93;;
505;SDS011;551;48.524;9.056;2024-02-26T03:06:18;3.37;;;3.07;;
505;SDS011;551;48.524;9.056;2024-02-26T03:08:44;8.40;;;3.13;;
505;SDS011;551;48.524;9.056;2024-02-26T03:11:12;2.60;;;2.40;;
505;SDS011;551;48.524;9.056;2024-02-26T03:13:40;4.97;;;3.13;;
505;SDS011;551;48.524;9.056;2024-02-26T03:16:05;4.47;;;2.97;;
505;SDS011;551;48.524;9.056;2024-02-26T03:18:31;5.30;;;2.80;;
505;SDS011;551;48.524;9.056;2024-02-26T03:20:57;3.00;;;2.63;;
505;SDS011;551;48.524;9.056;2024-02-26T03:23:22;6.00;;;2.90;;
505;SDS011;551;48.524;9.056;2024-02-26T03:25:48;5.10;;;3.00;;
505;SDS011;551;48.524;9.056;2024-02-26T03:28:13;3.87;;;2.50;;
505;SDS011;551;48.524;9.056;2024-02-26T03:30:39;5.50;;;3.83;;
505;SDS011;551;48.524;9.056;2024-02-26T03:33:04;4.50;;;2.77;;
505;SDS011;551;48.524;9.056;2024-02-26T03:35:30;3.80;;;2.60;;
505;SDS011;551;48.524;9.056;2024-02-26T03:37:55;5.83;;;2.60;;
505;SDS011;551;48.524;9.056;2024-02-26T03:40:21;2.97;;;2.67;;
505;SDS011;551;48.524;9.056;2024-02-26T03:42:46;6.10;;;2.73;;
505;SDS011;551;48.524;9.056;2024-02-26T03:45:12;4.13;;;2.83;;
505;SDS011;551;48.524;9.056;2024-02-26T03:47:38;3.80;;;2.17;;
505;SDS011;551;48.524;9.056;2024-02-26T03:50:05;6.27;;;2.80;;
505;SDS011;551;48.524;9.056;2024-02-26T03:52:31;4.60;;;2.27;;
505;SDS011;551;48.524;9.056;2024-02-26T03:54:57;4.27;;;2.90;;
505;SDS011;551;48.524;9.056;2024-02-26T03:57:22;3.73;;;2.60;;
505;SDS011;551;48.524;9.056;2024-02-26T03:59:48;3.43;;;2.80;;
505;SDS011;551;48.524;9.056;2024-02-26T04:02:16;3.27;;;2.50;;
505;SDS011;551;48.524;9.056;2024-02-26T04:04:44;4.03;;;2.90;;
505;SDS011;551;48.524;9.056;2024-02-26T04:07:10;3.90;;;3.30;;
505;SDS011;551;48.524;9.056;2024-02-26T04:09:36;3.97;;;2.50;;
505;SDS011;551;48.524;9.056;2024-02-26T04:12:02;3.67;;;3.37;;
505;SDS011;551;48.524;9.056;2024-02-26T04:14:28;6.33;;;3.10;;
505;SDS011;551;48.524;9.056;2024-02-26T04:16:54;4.07;;;2.90;;
505;SDS011;551;48.524;9.056;2024-02-26T04:19:19;4.60;;;2.27;;
505;SDS011;551;48.524;9.056;2024-02-26T04:21:45;5.13;;;2.80;;
505;SDS011;551;48.524;9.056;2024-02-26T04:24:11;6.30;;;3.40;;
505;SDS011;551;48.524;9.056;2024-02-26T04:26:36;2.77;;;2.50;;
505;SDS011;551;48.524;9.056;2024-02-26T04:29:02;4.43;;;2.77;;
505;SDS011;551;48.524;9.056;2024-02-26T04:31:27;3.97;;;2.87;;
505;SDS011;551;48.524;9.056;2024-02-26T04:33:53;5.43;;;3.27;;
505;SDS011;551;48.524;9.056;2024-02-26T04:36:19;3.03;;;2.80;;
505;SDS011;551;48.524;9.056;2024-02-26T04:38:44;3.23;;;2.43;;
505;SDS011;551;48.524;9.056;2024-02-26T04:41:10;2.60;;;2.40;;
505;SDS011;551;48.524;9.056;2024-02-26T04:43:36;2.60;;;2.40;;
505;SDS011;551;48.524;9.056;2024-02-26T04:46:09;3.50;;;2.60;;
505;SDS011;551;48.524;9.056;2024-02-26T04:48:35;3.07;;;2.60;;
505;SDS011;551;48.524;9.056;2024-02-26T04:51:02;2.67;;;2.47;;
505;SDS011;551;48.524;9.056;2024-02-26T04:53:28;4.90;;;2.70;;
505;SDS011;551;48.524;9.056;2024-02-26T04:55:53;2.43;;;2.23;;
505;SDS011;551;48.524;9.056;2024-02-26T04:58:19;4.50;;;2.60;;
505;SDS011;551;48.524;9.056;2024-02-26T05:00:45;2.67;;;2.47;;
505;SDS011;551;48.524;9.056;2024-02-26T05:03:10;4.00;;;2.30;;
505;SDS011;551;48.524;9.056;2024-02-26T05:05:38;3.00;;;2.10;;
505;SDS011;551;48.524;9.056;2024-02-26T05:08:04;3.07;;;2.20;;
505;SDS011;551;48.524;9.056;2024-02-26T05:10:30;2.80;;;2.50;;
505;SDS011;551;48.524;9.056;2024-02-26T05:12:56;3.27;;;2.40;;
505;SDS011;551;48.524;9.056;2024-02-26T05:15:22;5.73;;;2.80;;
505;SDS011;551;48.524;9.056;2024-02-26T05:17:47;5.67;;;2.90;;
505;SDS011;551;48.524;9.056;2024-02-26T05:20:13;3.57;;;2.77;;
505;SDS011;551;48.524;9.056;2024-02-26T05:22:38;4.23;;;2.80;;
505;SDS011;551;48.524;9.056;2024-02-26T05:25:04;5.43;;;3.23;;
505;SDS011;551;48.524;9.056;2024-02-26T05:27:29;3.27;;;3.07;;
505;SDS011;551;48.524;9.056;2024-02-26T05:29:55;5.70;;;2.50;;
505;SDS011;551;48.524;9.056;2024-02-26T05:32:21;4.40;;;2.73;;
505;SDS011;551;48.524;9.056;2024-02-26T05:34:46;3.40;;;3.00;;
505;SDS011;551;48.524;9.056;2024-02-26T05:37:12;3.63;;;2.80;;
505;SDS011;551;48.524;9.056;2024-02-26T05:39:37;3.30;;;3.00;;
505;SDS011;551;48.524;9.056;2024-02-26T05:42:03;3.23;;;2.67;;
505;SDS011;551;48.524;9.056;2024-02-26T05:44:29;2.87;;;2.53;;
505;SDS011;551;48.524;9.056;2024-02-26T05:46:55;3.63;;;2.97;;
505;SDS011;551;48.524;9.056;2024-02-26T05:49:21;2.40;;;2.20;;
505;SDS011;551;48.524;9.056;2024-02-26T05:51:47;3.70;;;2.47;;
505;SDS011;551;48.524;9.056;2024-02-26T05:54:12;5.80;;;2.57;;
505;SDS011;551;48.524;9.056;2024-02-26T05:56:38;3.30;;;2.70;;
505;SDS011;551;48.524;9.056;2024-02-26T05:59:04;3.63;;;2.50;;
505;SDS011;551;48.524;9.056;2024-02-26T06:01:30;3.90;;;2.33;;
505;SDS011;551;48.524;9.056;2024-02-26T06:03:56;2.70;;;2.37;;
505;SDS011;551;48.524;9.056;2024-02-26T06:06:22;3.90;;;2.40;;
505;SDS011;551;48.524;9.056;2024-02-26T06:08:48;5.87;;;2.77;;
505;SDS011;551;48.524;9.056;2024-02-26T06:11:14;3.13;;;2.40;;
505;SDS011;551;48.524;9.056;2024-02-26T06:13:43;3.43;;;2.80;;
505;SDS011;551;48.524;9.056;2024-02-26T06:16:08;3.80;;;2.60;;
505;SDS011;551;48.524;9.056;2024-02-26T06:18:34;4.63;;;3.10;;
505;SDS011;551;48.524;9.056;2024-02-26T06:20:59;3.27;;;2.50;;
505;SDS011;551;48.524;9.056;2024-02-26T06:23:25;5.13;;;2.80;;
505;SDS011;551;48.524;9.056;2024-02-26T06:25:51;3.90;;;2.83;;
505;SDS011;551;48.524;9.056;2024-02-26T06:28:17;2.90;;;2.63;;
505;SDS011;551;48.524;9.056;2024-02-26T06:30:42;3.30;;;2.03;;
505;SDS011;551;48.524;9.056;2024-02-26T06:33:08;3.70;;;3.10;;
505;SDS011;551;48.524;9.056;2024-02-26T06:35:34;3.00;;;2.70;;
505;SDS011;551;48.524;9.056;2024-02-26T06:37:59;4.30;;;3.27;;
505;SDS011;551;48.524;9.056;2024-02-26T06:40:25;4.53;;;2.90;;
505;SDS011;551;48.524;9.056;2024-02-26T06:42:50;3.87;;;2.70;;
505;SDS011;551;48.524;9.056;2024-02-26T06:45:16;4.13;;;3.10;;
505;SDS011;551;48.524;9.056;2024-02-26T06:47:43;3.37;;;3.07;;
505;SDS011;551;48.524;9.056;2024-02-26T06:50:08;3.80;;;3.47;;
505;SDS011;551;48.524;9.056;2024-02-26T06:52:36;5.63;;;3.27;;
505;SDS011;551;48.524;9.056;2024-02-26T06:55:02;3.90;;;3.30;;
505;SDS011;551;48.524;9.056;2024-02-26T06:57:27;4.00;;;3.00;;
505;SDS011;551;48.524;9.056;2024-02-26T06:59:53;4.17;;;3.10;;
505;SDS011;551;48.524;9.056;2024-02-26T07:02:19;5.23;;;2.80;;
505;SDS011;551;48.524;9.056;2024-02-26T07:04:44;8.23;;;3.67;;
505;SDS011;551;48.524;9.056;2024-02-26T07:07:10;5.73;;;3.87;;
505;SDS011;551;48.524;9.056;2024-02-26T07:09:35;6.83;;;3.90;;
505;SDS011;551;48.524;9.056;2024-02-26T07:12:01;11.13;;;4.40;;
505;SDS011;551;48.524;9.056;2024-02-26T07:14:27;7.60;;;3.00;;
505;SDS011;551;48.524;9.056;2024-02-26T07:16:53;3.67;;;3.37;;
505;SDS011;551;48.524;9.056;2024-02-26T07:19:18;4.43;;;3.63;;
505;SDS011;551;48.524;9.056;2024-02-26T07:21:44;2.83;;;2.60;;
505;SDS011;551;48.524;9.056;2024-02-26T07:24:09;5.37;;;3.23;;
505;SDS011;551;48.524;9.056;2024-02-26T07:26:35;5.77;;;3.70;;
505;SDS011;551;48.524;9.056;2024-02-26T07:29:00;4.20;;;3.23;;
505;SDS011;551;48.524;9.056;2024-02-26T07:31:26;5.93;;;4.23;;
505;SDS011;551;48.524;9.056;2024-02-26T07:33:51;9.37;;;3.27;;
505;SDS011;551;48.524;9.056;2024-02-26T07:36:17;4.00;;;3.60;;
505;SDS011;551;48.524;9.056;2024-02-26T07:38:42;4.17;;;3.77;;
505;SDS011;551;48.524;9.056;2024-02-26T07:41:08;5.50;;;3.97;;
505;SDS011;551;48.524;9.056;2024-02-26T07:43:34;13.80;;;3.33;;
505;SDS011;551;48.524;9.056;2024-02-26T07:45:59;3.23;;;2.93;;
505;SDS011;551;48.524;9.056;2024-02-26T07:48:25;6.67;;;3.43;;
505;SDS011;551;48.524;9.056;2024-02-26T07:50:51;2.70;;;2.30;;
505;SDS011;551;48.524;9.056;2024-02-26T07:53:16;5.30;;;3.07;;
505;SDS011;551;48.524;9.056;2024-02-26T07:55:42;4.73;;;3.30;;
505;SDS011;551;48.524;9.056;2024-02-26T07:58:07;4.77;;;2.70;;
505;SDS011;551;48.524;9.056;2024-02-26T08:00:33;17.77;;;4.10;;
505;SDS011;551;48.524;9.056;2024-02-26T08:02:58;3.97;;;3.20;;
505;SDS011;551;48.524;9.056;2024-02-26T08:05:24;3.80;;;3.50;;
505;SDS011;551;48.524;9.056;2024-02-26T08:07:50;8.17;;;3.90;;
505;SDS011;551;48.524;9.056;2024-02-26T08:10:16;4.50;;;3.73;;
505;SDS011;551;48.524;9.056;2024-02-26T08:12:41;11.30;;;4.00;;
505;SDS011;551;48.524;9.056;2024-02-26T08:15:07;4.40;;;3.50;;
505;SDS011;551;48.524;9.056;2024-02-26T08:17:33;6.20;;;4.37;;
505;SDS011;551;48.524;9.056;2024-02-26T08:19:59;4.20;;;3.10;;
505;SDS011;551;48.524;9.056;2024-02-26T08:22:25;3.47;;;3.07;;
505;SDS011;551;48.524;9.056;2024-02-26T08:24:51;7.43;;;3.13;;
505;SDS011;551;48.524;9.056;2024-02-26T08:27:16;4.47;;;3.30;;
505;SDS011;551;48.524;9.056;2024-02-26T08:29:42;8.30;;;3.50;;
505;SDS011;551;48.524;9.056;2024-02-26T08:32:08;6.10;;;3.20;;
505;SDS011;551;48.524;9.056;2024-02-26T08:34:33;3.40;;;3.10;;
505;SDS011;551;48.524;9.056;2024-02-26T08:36:59;7.57;;;3.27;;
505;SDS011;551;48.524;9.056;2024-02-26T08:39:24;3.53;;;3.00;;
505;SDS011;551;48.524;9.056;2024-02-26T08:41:50;3.57;;;2.90;;
505;SDS011;551;48.524;9.056;2024-02-26T08:44:16;4.90;;;2.73;;
505;SDS011;551;48.524;9.056;2024-02-26T08:46:42;2.70;;;2.47;;
505;SDS011;551;48.524;9.056;2024-02-26T08:49:07;4.23;;;2.13;;
505;SDS011;551;48.524;9.056;2024-02-26T08:51:33;4.30;;;2.30;;
505;SDS011;551;48.524;9.056;2024-02-26T08:53:58;8.90;;;2.60;;
505;SDS011;551;48.524;9.056;2024-02-26T08:56:24;5.37;;;2.37;;
505;SDS011;551;48.524;9.056;2024-02-26T08:58:49;5.30;;;2.73;;
505;SDS011;551;48.524;9.056;2024-02-26T09:01:18;3.00;;;2.10;;
505;SDS011;551;48.524;9.056;2024-02-26T09:03:44;6.23;;;2.00;;
505;SDS011;551;48.524;9.056;2024-02-26T09:06:09;5.00;;;1.97;;
505;SDS011;551;48.524;9.056;2024-02-26T09:08:36;2.97;;;1.97;;
505;SDS011;551;48.524;9.056;2024-02-26T09:11:02;7.00;;;2.70;;
505;SDS011;551;48.524;9.056;2024-02-26T09:13:28;3.10;;;2.80;;
505;SDS011;551;48.524;9.056;2024-02-26T09:15:54;3.37;;;2.60;;
505;SDS011;551;48.524;9.056;2024-02-26T09:18:20;3.27;;;2.93;;
505;SDS011;551;48.524;9.056;2024-02-26T09:20:45;3.10;;;2.80;;
505;SDS011;551;48.524;9.056;2024-02-26T09:23:11;5.57;;;2.90;;
505;SDS011;551;48.524;9.056;2024-02-26T09:25:37;3.50;;;3.00;;
505;SDS011;551;48.524;9.056;2024-02-26T09:28:02;3.37;;;3.07;;
505;SDS011;551;48.524;9.056;2024-02-26T09:30:28;4.93;;;3.00;;
505;SDS011;551;48.524;9.056;2024-02-26T09:32:54;11.27;;;3.43;;
505;SDS011;551;48.524;9.056;2024-02-26T09:35:19;3.20;;;2.90;;
505;SDS011;551;48.524;9.056;2024-02-26T09:37:46;8.30;;;2.90;;
505;SDS011;551;48.524;9.056;2024-02-26T09:40:13;3.70;;;3.13;;
505;SDS011;551;48.524;9.056;2024-02-26T09:42:43;11.00;;;3.57;;
505;SDS011;551;48.524;9.056;2024-02-26T09:45:10;5.03;;;2.40;;
505;SDS011;551;48.524;9.056;2024-02-26T09:47:42;4.73;;;3.17;;
505;SDS011;551;48.524;9.056;2024-02-26T09:50:08;7.53;;;2.50;;
505;SDS011;551;48.524;9.056;2024-02-26T09:52:34;3.77;;;2.33;;
505;SDS011;551;48.524;9.056;2024-02-26T09:55:02;3.87;;;2.43;;
505;SDS011;551;48.524;9.056;2024-02-26T09:57:29;1.80;;;1.70;;
505;SDS011;551;48.524;9.056;2024-02-26T09:59:55;1.67;;;1.57;;
505;SDS011;551;48.524;9.056;2024-02-26T10:02:28;2.17;;;1.50;;
505;SDS011;551;48.524;9.056;2024-02-26T10:04:54;8.83;;;1.90;;
505;SDS011;551;48.524;9.056;2024-02-26T10:07:22;2.50;;;1.80;;
505;SDS011;551;48.524;9.056;2024-02-26T10:09:48;3.00;;;1.53;;
505;SDS011;551;48.524;9.056;2024-02-26T10:12:14;2.47;;;1.67;;
505;SDS011;551;48.524;9.056;2024-02-26T10:14:42;2.33;;;1.73;;
505;SDS011;551;48.524;9.056;2024-02-26T10:17:07;1.93;;;1.83;;
505;SDS011;551;48.524;9.056;2024-02-26T10:19:33;4.70;;;2.43;;
505;SDS011;551;48.524;9.056;2024-02-26T10:22:00;1.70;;;1.60;;
505;SDS011;551;48.524;9.056;2024-02-26T10:24:26;3.40;;;2.20;;
505;SDS011;551;48.524;9.056;2024-02-26T10:26:56;3.73;;;1.67;;
505;SDS011;551;48.524;9.056;2024-02-26T10:29:23;1.73;;;1.63;;
505;SDS011;551;48.524;9.056;2024-02-26T10:31:53;3.80;;;2.17;;
505;SDS011;551;48.524;9.056;2024-02-26T10:34:19;1.83;;;1.73;;
505;SDS011;551;48.524;9.056;2024-02-26T10:36:45;2.60;;;1.90;;
505;SDS011;551;48.524;9.056;2024-02-26T10:39:11;2.07;;;1.87;;
505;SDS011;551;48.524;9.056;2024-02-26T10:41:38;3.80;;;2.10;;
505;SDS011;551;48.524;9.056;2024-02-26T10:44:09;2.90;;;2.00;;
505;SDS011;551;48.524;9.056;2024-02-26T10:46:36;4.30;;;1.90;;
505;SDS011;551;48.524;9.056;2024-02-26T10:49:02;3.53;;;2.17;;
505;SDS011;551;48.524;9.056;2024-02-26T10:51:29;4.67;;;1.93;;
505;SDS011;551;48.524;9.056;2024-02-26T10:53:56;2.60;;;1.70;;
505;SDS011;551;48.524;9.056;2024-02-26T10:56:27;4.70;;;2.10;;
505;SDS011;551;48.524;9.056;2024-02-26T10:58:57;6.33;;;2.17;;
505;SDS011;551;48.524;9.056;2024-02-26T11:01:23;1.97;;;1.77;;
505;SDS011;551;48.524;9.056;2024-02-26T11:03:50;2.07;;;1.80;;
505;SDS011;551;48.524;9.056;2024-02-26T11:06:24;4.67;;;1.90;;
505;SDS011;551;48.524;9.056;2024-02-26T11:08:51;3.13;;;2.23;;
505;SDS011;551;48.524;9.056;2024-02-26T11:11:19;2.43;;;2.23;;
505;SDS011;551;48.524;9.056;2024-02-26T11:13:46;2.70;;;2.07;;
505;SDS011;551;48.524;9.056;2024-02-26T11:16:18;3.13;;;1.80;;
505;SDS011;551;48.524;9.056;2024-02-26T11:18:48;1.90;;;1.80;;
505;SDS011;551;48.524;9.056;2024-02-26T11:21:17;2.63;;;2.10;;
505;SDS011;551;48.524;9.056;2024-02-26T11:23:52;3.07;;;1.77;;
505;SDS011;551;48.524;9.056;2024-02-26T11:26:18;3.00;;;2.43;;
505;SDS011;551;48.524;9.056;2024-02-26T11:28:45;2.53;;;1.90;;
505;SDS011;551;48.524;9.056;2024-02-26T11:31:12;2.03;;;1.90;;
505;SDS011;551;48.524;9.056;2024-02-26T11:33:38;2.40;;;2.20;;
505;SDS011;551;48.524;9.056;2024-02-26T11:36:11;1.98;;;1.70;;
505;SDS011;551;48.524;9.056;2024-02-26T11:38:37;2.17;;;2.07;;
505;SDS011;551;48.524;9.056;2024-02-26T11:41:04;2.80;;;2.20;;
505;SDS011;551;48.524;9.056;2024-02-26T11:48:54;3.40;;;1.87;;
505;SDS011;551;48.524;9.056;2024-02-26T11:51:27;1.73;;;1.60;;
505;SDS011;551;48.524;9.056;2024-02-26T11:53:57;1.70;;;1.60;;
505;SDS011;551;48.524;9.056;2024-02-26T11:56:23;4.40;;;2.07;;
505;SDS011;551;48.524;9.056;2024-02-26T11:59:10;1.93;;;1.63;;
505;SDS011;551;48.524;9.056;2024-02-26T12:01:48;3.50;;;2.10;;
505;SDS011;551;48.524;9.056;2024-02-26T12:04:22;2.10;;;1.87;;
505;SDS011;551;48.524;9.056;2024-02-26T12:06:57;1.80;;;1.70;;
505;SDS011;551;48.524;9.056;2024-02-26T12:11:57;2.57;;;1.80;;
505;SDS011;551;48.524;9.056;2024-02-26T12:14:26;2.80;;;2.00;;
505;SDS011;551;48.524;9.056;2024-02-26T12:16:52;5.67;;;2.43;;
505;SDS011;551;48.524;9.056;2024-02-26T12:19:18;1.97;;;1.77;;
505;SDS011;551;48.524;9.056;2024-02-26T12:21:43;2.00;;;1.90;;
505;SDS011;551;48.524;9.056;2024-02-26T12:24:12;4.67;;;2.10;;
505;SDS011;551;48.524;9.056;2024-02-26T12:26:40;4.43;;;1.77;;
505;SDS011;551;48.524;9.056;2024-02-26T12:29:07;4.67;;;2.20;;
505;SDS011;551;48.524;9.056;2024-02-26T12:31:33;1.80;;;1.53;;
505;SDS011;551;48.524;9.056;2024-02-26T12:33:59;2.00;;;1.80;;
505;SDS011;551;48.524;9.056;2024-02-26T12:36:25;3.30;;;1.77;;
505;SDS011;551;48.524;9.056;2024-02-26T12:38:51;2.70;;;1.67;;
505;SDS011;551;48.524;9.056;2024-02-26T12:41:17;2.30;;;2.10;;
505;SDS011;551;48.524;9.056;2024-02-26T12:43:43;1.53;;;1.43;;
505;SDS011;551;48.524;9.056;2024-02-26T12:46:08;1.83;;;1.67;;
505;SDS011;551;48.524;9.056;2024-02-26T12:48:35;5.90;;;1.83;;
505;SDS011;551;48.524;9.056;2024-02-26T12:51:01;2.07;;;1.83;;
505;SDS011;551;48.524;9.056;2024-02-26T12:53:27;2.80;;;2.03;;
505;SDS011;551;48.524;9.056;2024-02-26T12:55:53;2.73;;;1.60;;
505;SDS011;551;48.524;9.056;2024-02-26T12:58:20;1.63;;;1.47;;
505;SDS011;551;48.524;9.056;2024-02-26T13:00:49;2.07;;;1.87;;
505;SDS011;551;48.524;9.056;2024-02-26T13:03:16;2.13;;;1.70;;
505;SDS011;551;48.524;9.056;2024-02-26T13:05:46;2.67;;;1.47;;
505;SDS011;551;48.524;9.056;2024-02-26T13:08:18;1.50;;;1.40;;
505;SDS011;551;48.524;9.056;2024-02-26T13:10:48;1.60;;;1.50;;
505;SDS011;551;48.524;9.056;2024-02-26T13:13:15;4.60;;;1.73;;
505;SDS011;551;48.524;9.056;2024-02-26T13:15:42;1.40;;;1.30;;
505;SDS011;551;48.524;9.056;2024-02-26T13:18:09;1.47;;;1.37;;
505;SDS011;551;48.524;9.056;2024-02-26T13:20:36;1.37;;;1.27;;
505;SDS011;551;48.524;9.056;2024-02-26T13:23:02;1.40;;;1.10;;
505;SDS011;551;48.524;9.056;2024-02-26T13:25:31;2.83;;;1.70;;
505;SDS011;551;48.524;9.056;2024-02-26T13:28:13;1.20;;;1.00;;
505;SDS011;551;48.524;9.056;2024-02-26T13:30:41;3.37;;;1.10;;
505;SDS011;551;48.524;9.056;2024-02-26T13:33:07;1.77;;;1.20;;
505;SDS011;551;48.524;9.056;2024-02-26T13:35:34;7.33;;;1.20;;
505;SDS011;551;48.524;9.056;2024-02-26T13:38:00;1.43;;;1.30;;
505;SDS011;551;48.524;9.056;2024-02-26T13:40:25;3.00;;;1.43;;
505;SDS011;551;48.524;9.056;2024-02-26T13:42:51;1.63;;;1.50;;
505;SDS011;551;48.524;9.056;2024-02-26T13:45:17;1.77;;;1.60;;
505;SDS011;551;48.524;9.056;2024-02-26T13:47:43;1.83;;;1.13;;
505;SDS011;551;48.524;9.056;2024-02-26T13:50:09;2.10;;;1.27;;
505;SDS011;551;48.524;9.056;2024-02-26T13:52:35;1.10;;;1.00;;
505;SDS011;551;48.524;9.056;2024-02-26T13:55:00;1.30;;;1.17;;
505;SDS011;551;48.524;9.056;2024-02-26T13:57:27;1.70;;;1.30;;
505;SDS011;551;48.524;9.056;2024-02-26T13:59:53;2.40;;;1.20;;
505;SDS011;551;48.524;9.056;2024-02-26T14:02:19;3.10;;;1.00;;
505;SDS011;551;48.524;9.056;2024-02-26T14:04:45;1.53;;;1.20;;
505;SDS011;551;48.524;9.056;2024-02-26T14:07:11;2.60;;;1.20;;
505;SDS011;551;48.524;9.056;2024-02-26T14:09:37;2.90;;;1.30;;
505;SDS011;551;48.524;9.056;2024-02-26T14:12:03;2.10;;;0.97;;
505;SDS011;551;48.524;9.056;2024-02-26T14:14:29;2.97;;;1.00;;
505;SDS011;551;48.524;9.056;2024-02-26T14:16:57;1.93;;;1.20;;
505;SDS011;551;48.524;9.056;2024-02-26T14:19:23;2.63;;;1.60;;
505;SDS011;551;48.524;9.056;2024-02-26T14:21:49;2.33;;;1.10;;
505;SDS011;551;48.524;9.056;2024-02-26T14:24:14;1.50;;;1.40;;
505;SDS011;551;48.524;9.056;2024-02-26T14:26:40;3.37;;;1.70;;
505;SDS011;551;48.524;9.056;2024-02-26T14:29:06;2.20;;;1.33;;
505;SDS011;551;48.524;9.056;2024-02-26T14:31:32;3.60;;;1.30;;
505;SDS011;551;48.524;9.056;2024-02-26T14:33:58;1.93;;;1.70;;
505;SDS011;551;48.524;9.056;2024-02-26T14:36:23;2.50;;;1.60;;
505;SDS011;551;48.524;9.056;2024-02-26T14:38:49;3.33;;;1.47;;
505;SDS011;551;48.524;9.056;2024-02-26T14:41:15;1.30;;;1.00;;
505;SDS011;551;48.524;9.056;2024-02-26T14:43:41;2.93;;;1.53;;
505;SDS011;551;48.524;9.056;2024-02-26T14:46:07;1.60;;;1.27;;
505;SDS011;551;48.524;9.056;2024-02-26T14:48:32;1.10;;;1.00;;
505;SDS011;551;48.524;9.056;2024-02-26T14:50:58;1.40;;;1.30;;
505;SDS011;551;48.524;9.056;2024-02-26T14:53:24;1.53;;;1.20;;
505;SDS011;551;48.524;9.056;2024-02-26T14:55:50;1.37;;;1.27;;
505;SDS011;551;48.524;9.056;2024-02-26T14:58:16;1.50;;;1.40;;
505;SDS011;551;48.524;9.056;2024-02-26T15:00:42;2.03;;;1.30;;
505;SDS011;551;48.524;9.056;2024-02-26T15:03:08;1.53;;;1.33;;
505;SDS011;551;48.524;9.056;2024-02-26T15:05:34;1.60;;;1.43;;
505;SDS011;551;48.524;9.056;2024-02-26T15:07:59;2.80;;;1.40;;
505;SDS011;551;48.524;9.056;2024-02-26T15:10:25;1.40;;;1.30;;
505;SDS011;551;48.524;9.056;2024-02-26T15:12:51;3.17;;;1.33;;
505;SDS011;551;48.524;9.056;2024-02-26T15:15:22;1.83;;;1.43;;
505;SDS011;551;48.524;9.056;2024-02-26T15:17:48;1.40;;;1.30;;
505;SDS011;551;48.524;9.056;2024-02-26T15:20:14;1.40;;;1.30;;
505;SDS011;551;48.524;9.056;2024-02-26T15:22:41;1.53;;;1.40;;
505;SDS011;551;48.524;9.056;2024-02-26T15:25:07;2.10;;;1.50;;
505;SDS011;551;48.524;9.056;2024-02-26T15:27:33;1.57;;;1.40;;
505;SDS011;551;48.524;9.056;2024-02-26T15:29:59;2.17;;;1.80;;
505;SDS011;551;48.524;9.056;2024-02-26T15:32:25;2.00;;;1.33;;
505;SDS011;551;48.524;9.056;2024-02-26T15:34:52;1.60;;;1.50;;
505;SDS011;551;48.524;9.056;2024-02-26T15:37:18;1.40;;;1.30;;
505;SDS011;551;48.524;9.056;2024-02-26T15:39:44;1.50;;;1.40;;
505;SDS011;551;48.524;9.056;2024-02-26T15:42:10;1.50;;;1.40;;
505;SDS011;551;48.524;9.056;2024-02-26T15:44:36;1.73;;;1.60;;
505;SDS011;551;48.524;9.056;2024-02-26T15:47:03;2.47;;;1.77;;